createdAt,value
2022-09-20T00:00:00.949Z,14
2022-09-20T00:01:00.967Z,11
2022-09-20T00:02:00.922Z,11
2022-09-20T00:03:00.922Z,11
2022-09-20T00:04:00.950Z,12
2022-09-20T00:05:00.923Z,8
2022-09-20T00:06:00.923Z,9
2022-09-20T00:07:00.961Z,9
2022-09-20T00:08:00.952Z,8
2022-09-20T00:09:00.952Z,9
2022-09-20T00:10:00.968Z,8
2022-09-20T00:11:00.952Z,8
2022-09-20T00:12:00.953Z,8
2022-09-20T00:13:00.953Z,9
2022-09-20T00:14:00.953Z,9
2022-09-20T00:15:00.954Z,13
2022-09-20T00:16:01.019Z,11
2022-09-20T00:17:00.926Z,10
2022-09-20T00:18:00.926Z,9
2022-09-20T00:19:00.954Z,11
2022-09-20T00:20:00.927Z,9
2022-09-20T00:21:00.927Z,8
2022-09-20T00:22:00.965Z,9
2022-09-20T00:23:00.956Z,9
2022-09-20T00:24:00.956Z,10
2022-09-20T00:25:00.972Z,11
2022-09-20T00:26:00.957Z,9
2022-09-20T00:27:00.957Z,9
2022-09-20T00:28:00.957Z,9
2022-09-20T00:29:00.957Z,9
2022-09-20T00:30:00.958Z,9
2022-09-20T00:31:00.958Z,9
2022-09-20T00:32:00.930Z,10
2022-09-20T00:33:00.930Z,8
2022-09-20T00:34:00.931Z,11
2022-09-20T00:35:00.931Z,9
2022-09-20T00:36:00.931Z,9
2022-09-20T00:37:00.931Z,9
2022-09-20T00:38:00.960Z,10
2022-09-20T00:39:00.960Z,8
2022-09-20T00:40:00.960Z,8
2022-09-20T00:41:00.960Z,8
2022-09-20T00:42:00.961Z,8
2022-09-20T00:43:00.961Z,8
2022-09-20T00:44:00.961Z,8
2022-09-20T00:45:00.962Z,11
2022-09-20T00:46:00.962Z,11
2022-09-20T00:47:00.934Z,10
2022-09-20T00:48:00.934Z,13
2022-09-20T00:49:00.935Z,11
2022-09-20T00:50:00.935Z,9
2022-09-20T00:51:00.935Z,9
2022-09-20T00:52:00.935Z,7
2022-09-20T00:53:00.964Z,8
2022-09-20T00:54:00.964Z,8
2022-09-20T00:55:00.964Z,7
2022-09-20T00:56:00.965Z,6
2022-09-20T00:57:00.965Z,7
2022-09-20T00:58:00.965Z,6
2022-09-20T00:59:00.966Z,6
2022-09-20T01:00:00.966Z,4
2022-09-20T01:01:00.966Z,6
2022-09-20T01:02:01.031Z,8
2022-09-20T01:03:00.938Z,9
2022-09-20T01:04:00.939Z,8
2022-09-20T01:05:00.967Z,9
2022-09-20T01:06:00.939Z,7
2022-09-20T01:07:00.939Z,8
2022-09-20T01:08:00.979Z,8
2022-09-20T01:09:00.968Z,8
2022-09-20T01:10:00.968Z,10
2022-09-20T01:11:00.985Z,8
2022-09-20T01:12:00.969Z,9
2022-09-20T01:13:00.969Z,7
2022-09-20T01:14:00.969Z,7
2022-09-20T01:15:00.970Z,8
2022-09-20T01:16:00.970Z,8
2022-09-20T01:17:00.942Z,5
2022-09-20T01:18:00.942Z,6
2022-09-20T01:19:00.943Z,6
2022-09-20T01:20:00.943Z,4
2022-09-20T01:21:00.943Z,4
2022-09-20T01:22:00.943Z,5
2022-09-20T01:23:00.972Z,6
2022-09-20T01:24:00.972Z,6
2022-09-20T01:25:00.972Z,5
2022-09-20T01:26:00.973Z,8
2022-09-20T01:27:00.973Z,8
2022-09-20T01:28:00.973Z,6
2022-09-20T01:29:00.990Z,8
2022-09-20T01:30:00.974Z,9
2022-09-20T01:31:00.974Z,9
2022-09-20T01:32:00.983Z,8
2022-09-20T01:33:00.946Z,9
2022-09-20T01:34:00.946Z,10
2022-09-20T01:36:00.947Z,11
2022-09-20T01:37:00.947Z,12
2022-09-20T01:38:00.976Z,12
2022-09-20T01:39:00.976Z,12
2022-09-20T01:40:00.976Z,10
2022-09-20T01:41:00.985Z,10
2022-09-20T01:42:00.977Z,11
2022-09-20T01:43:00.977Z,8
2022-09-20T01:44:00.977Z,9
2022-09-20T01:45:00.977Z,10
2022-09-20T01:46:00.978Z,9
2022-09-20T01:47:00.978Z,9
2022-09-20T01:48:00.950Z,11
2022-09-20T01:49:00.950Z,10
2022-09-20T01:50:00.951Z,8
2022-09-20T01:51:00.951Z,9
2022-09-20T01:52:00.951Z,8
2022-09-20T01:53:00.951Z,12
2022-09-20T01:54:00.980Z,9
2022-09-20T01:55:00.980Z,10
2022-09-20T01:56:00.980Z,7
2022-09-20T01:57:00.980Z,7
2022-09-20T01:58:00.981Z,8
2022-09-20T01:59:00.981Z,9
2022-09-20T02:00:00.981Z,8
2022-09-20T02:01:00.982Z,8
2022-09-20T02:02:00.982Z,7
2022-09-20T02:03:00.954Z,7
2022-09-20T02:04:00.954Z,8
2022-09-20T02:05:00.954Z,8
2022-09-20T02:06:00.955Z,7
2022-09-20T02:07:00.955Z,7
2022-09-20T02:08:00.955Z,10
2022-09-20T02:09:00.984Z,10
2022-09-20T02:10:00.984Z,10
2022-09-20T02:11:00.984Z,9
2022-09-20T02:12:00.984Z,8
2022-09-20T02:13:00.985Z,9
2022-09-20T02:14:00.985Z,7
2022-09-20T02:15:00.985Z,10
2022-09-20T02:16:00.985Z,8
2022-09-20T02:17:00.986Z,7
2022-09-20T02:18:00.958Z,8
2022-09-20T02:19:00.958Z,8
2022-09-20T02:20:00.958Z,6
2022-09-20T02:21:00.959Z,7
2022-09-20T02:22:00.959Z,7
2022-09-20T02:23:00.959Z,7
2022-09-20T02:24:00.987Z,6
2022-09-20T02:25:00.988Z,7
2022-09-20T02:26:00.988Z,6
2022-09-20T02:27:00.988Z,5
2022-09-20T02:28:00.989Z,4
2022-09-20T02:29:00.989Z,5
2022-09-20T02:30:00.989Z,4
2022-09-20T02:31:00.989Z,3
2022-09-20T02:32:00.989Z,4
2022-09-20T02:33:01.014Z,5
2022-09-20T02:34:00.962Z,4
2022-09-20T02:35:00.962Z,4
2022-09-20T02:36:00.962Z,5
2022-09-20T02:37:00.963Z,4
2022-09-20T02:38:00.963Z,6
2022-09-20T02:39:00.991Z,7
2022-09-20T02:40:00.991Z,6
2022-09-20T02:41:00.992Z,6
2022-09-20T02:42:00.992Z,8
2022-09-20T02:43:00.992Z,8
2022-09-20T02:44:00.993Z,8
2022-09-20T02:45:01.057Z,8
2022-09-20T02:46:00.993Z,8
2022-09-20T02:47:00.993Z,7
2022-09-20T02:48:01.003Z,10
2022-09-20T02:49:00.966Z,9
2022-09-20T02:50:00.966Z,9
2022-09-20T02:51:00.966Z,10
2022-09-20T02:52:00.966Z,9
2022-09-20T02:53:00.967Z,9
2022-09-20T02:54:00.995Z,9
2022-09-20T02:55:00.995Z,8
2022-09-20T02:56:00.996Z,7
2022-09-20T02:57:01.004Z,6
2022-09-20T02:58:00.996Z,7
2022-09-20T02:59:00.996Z,6
2022-09-20T03:00:00.997Z,5
2022-09-20T03:01:00.997Z,5
2022-09-20T03:02:00.997Z,7
2022-09-20T03:03:00.997Z,5
2022-09-20T03:04:00.970Z,8
2022-09-20T03:05:00.970Z,8
2022-09-20T03:06:00.970Z,7
2022-09-20T03:07:00.970Z,8
2022-09-20T03:08:00.971Z,7
2022-09-20T03:09:00.971Z,10
2022-09-20T03:10:00.999Z,7
2022-09-20T03:11:01.000Z,7
2022-09-20T03:12:01.000Z,7
2022-09-20T03:13:01.000Z,8
2022-09-20T03:14:01.000Z,7
2022-09-20T03:15:01.025Z,8
2022-09-20T03:16:01.001Z,8
2022-09-20T03:17:01.001Z,7
2022-09-20T03:18:01.001Z,8
2022-09-20T03:19:00.973Z,8
2022-09-20T03:20:00.974Z,10
2022-09-20T03:21:00.974Z,10
2022-09-20T03:22:00.974Z,12
2022-09-20T03:23:00.974Z,10
2022-09-20T03:24:00.975Z,9
2022-09-20T03:25:01.003Z,11
2022-09-20T03:26:01.003Z,8
2022-09-20T03:27:01.004Z,8
2022-09-20T03:28:01.004Z,9
2022-09-20T03:30:01.004Z,11
2022-09-20T03:31:01.005Z,11
2022-09-20T03:32:01.005Z,15
2022-09-20T03:33:01.005Z,15
2022-09-20T03:34:00.977Z,11
2022-09-20T03:35:00.978Z,11
2022-09-20T03:36:00.978Z,11
2022-09-20T03:37:00.978Z,10
2022-09-20T03:38:00.978Z,12
2022-09-20T03:39:00.979Z,11
2022-09-20T03:40:01.007Z,10
2022-09-20T03:41:01.007Z,9
2022-09-20T03:42:01.007Z,8
2022-09-20T03:43:01.008Z,8
2022-09-20T03:44:01.008Z,9
2022-09-20T03:45:01.008Z,13
2022-09-20T03:46:01.009Z,9
2022-09-20T03:47:01.009Z,8
2022-09-20T03:48:01.009Z,8
2022-09-20T03:49:00.981Z,13
2022-09-20T03:50:00.981Z,11
2022-09-20T03:51:00.982Z,12
2022-09-20T03:52:00.982Z,15
2022-09-20T03:53:00.982Z,14
2022-09-20T03:54:00.983Z,14
2022-09-20T03:55:01.011Z,15
2022-09-20T03:56:01.011Z,16
2022-09-20T03:57:01.012Z,12
2022-09-20T03:58:01.012Z,12
2022-09-20T03:59:01.012Z,14
2022-09-20T04:00:01.012Z,11
2022-09-20T04:01:01.077Z,11
2022-09-20T04:02:01.013Z,11
2022-09-20T04:03:01.013Z,11
2022-09-20T04:04:01.022Z,8
2022-09-20T04:05:00.985Z,10
2022-09-20T04:06:00.986Z,10
2022-09-20T04:07:00.986Z,11
2022-09-20T04:08:00.986Z,11
2022-09-20T04:09:00.987Z,10
2022-09-20T04:10:01.015Z,13
2022-09-20T04:11:01.015Z,14
2022-09-20T04:12:01.015Z,15
2022-09-20T04:13:01.024Z,16
2022-09-20T04:14:02.609Z,15
2022-09-20T04:15:01.016Z,12
2022-09-20T04:16:01.016Z,14
2022-09-20T04:17:01.017Z,11
2022-09-20T04:18:01.017Z,12
2022-09-20T04:19:00.989Z,9
2022-09-20T04:20:00.989Z,8
2022-09-20T04:21:00.990Z,9
2022-09-20T04:22:00.990Z,12
2022-09-20T04:23:00.990Z,10
2022-09-20T04:24:00.990Z,9
2022-09-20T04:25:01.019Z,8
2022-09-20T04:26:01.019Z,8
2022-09-20T04:27:01.019Z,8
2022-09-20T04:28:01.019Z,6
2022-09-20T04:29:01.020Z,7
2022-09-20T04:30:01.020Z,8
2022-09-20T04:31:01.029Z,9
2022-09-20T04:32:01.021Z,8
2022-09-20T04:33:01.021Z,13
2022-09-20T04:34:01.021Z,10
2022-09-20T04:35:00.993Z,14
2022-09-20T04:36:00.993Z,13
2022-09-20T04:37:00.994Z,14
2022-09-20T04:38:00.994Z,15
2022-09-20T04:39:00.994Z,19
2022-09-20T04:40:00.995Z,17
2022-09-20T04:41:01.023Z,13
2022-09-20T04:42:01.023Z,13
2022-09-20T04:43:01.023Z,13
2022-09-20T04:44:01.024Z,10
2022-09-20T04:45:01.024Z,9
2022-09-20T04:46:01.024Z,9
2022-09-20T04:47:01.025Z,10
2022-09-20T04:48:01.025Z,9
2022-09-20T04:49:01.025Z,13
2022-09-20T04:50:00.997Z,14
2022-09-20T04:51:00.997Z,14
2022-09-20T04:52:00.998Z,12
2022-09-20T04:53:00.998Z,12
2022-09-20T04:54:00.998Z,11
2022-09-20T04:55:00.998Z,12
2022-09-20T04:56:01.027Z,12
2022-09-20T04:57:01.027Z,15
2022-09-20T04:58:01.027Z,14
2022-09-20T04:59:01.028Z,16
2022-09-20T05:00:01.028Z,23
2022-09-20T05:01:01.028Z,13
2022-09-20T05:02:01.028Z,17
2022-09-20T05:03:01.029Z,14
2022-09-20T05:04:01.029Z,15
2022-09-20T05:05:01.001Z,17
2022-09-20T05:06:01.001Z,19
2022-09-20T05:07:01.002Z,12
2022-09-20T05:08:01.002Z,14
2022-09-20T05:09:01.002Z,19
2022-09-20T05:10:01.002Z,19
2022-09-20T05:11:01.031Z,19
2022-09-20T05:12:01.031Z,18
2022-09-20T05:13:01.031Z,16
2022-09-20T05:14:08.608Z,18
2022-09-20T05:15:01.032Z,20
2022-09-20T05:16:01.032Z,23
2022-09-20T05:17:01.032Z,25
2022-09-20T05:18:01.033Z,27
2022-09-20T05:19:01.033Z,18
2022-09-20T05:20:01.005Z,21
2022-09-20T05:21:01.005Z,19
2022-09-20T05:22:01.006Z,25
2022-09-20T05:23:01.006Z,24
2022-09-20T05:24:01.006Z,25
2022-09-20T05:25:01.006Z,25
2022-09-20T05:26:01.035Z,19
2022-09-20T05:27:01.035Z,22
2022-09-20T05:28:01.035Z,16
2022-09-20T05:29:01.035Z,24
2022-09-20T05:30:01.036Z,20
2022-09-20T05:31:01.036Z,16
2022-09-20T05:32:01.036Z,16
2022-09-20T05:33:01.037Z,15
2022-09-20T05:34:01.037Z,13
2022-09-20T05:35:01.009Z,17
2022-09-20T05:36:01.009Z,22
2022-09-20T05:37:01.009Z,26
2022-09-20T05:38:01.010Z,28
2022-09-20T05:39:01.010Z,29
2022-09-20T05:40:01.010Z,15
2022-09-20T05:41:01.038Z,18
2022-09-20T05:42:01.039Z,21
2022-09-20T05:43:01.039Z,25
2022-09-20T05:44:01.039Z,18
2022-09-20T05:45:01.040Z,27
2022-09-20T05:46:01.040Z,32
2022-09-20T05:47:01.040Z,22
2022-09-20T05:48:01.041Z,19
2022-09-20T05:49:01.041Z,16
2022-09-20T05:50:01.050Z,23
2022-09-20T05:51:01.013Z,27
2022-09-20T05:52:01.013Z,29
2022-09-20T05:53:01.014Z,33
2022-09-20T05:54:01.014Z,24
2022-09-20T05:55:01.014Z,25
2022-09-20T05:56:01.043Z,20
2022-09-20T05:57:01.043Z,17
2022-09-20T05:58:01.043Z,21
2022-09-20T05:59:01.107Z,22
2022-09-20T06:00:01.044Z,22
2022-09-20T06:01:01.044Z,23
2022-09-20T06:02:01.044Z,24
2022-09-20T06:03:01.044Z,21
2022-09-20T06:04:01.045Z,27
2022-09-20T06:05:01.045Z,28
2022-09-20T06:06:01.017Z,32
2022-09-20T06:07:01.017Z,25
2022-09-20T06:08:01.017Z,30
2022-09-20T06:09:01.018Z,35
2022-09-20T06:10:01.018Z,33
2022-09-20T06:11:01.018Z,30
2022-09-20T06:12:01.047Z,27
2022-09-20T06:13:01.047Z,34
2022-09-20T06:14:06.399Z,23
2022-09-20T06:15:01.048Z,29
2022-09-20T06:16:01.048Z,18
2022-09-20T06:17:01.073Z,18
2022-09-20T06:18:01.048Z,20
2022-09-20T06:19:01.048Z,18
2022-09-20T06:20:01.049Z,21
2022-09-20T06:21:01.021Z,20
2022-09-20T06:22:01.021Z,25
2022-09-20T06:23:01.021Z,25
2022-09-20T06:24:01.022Z,27
2022-09-20T06:25:01.022Z,35
2022-09-20T06:26:01.022Z,27
2022-09-20T06:27:01.050Z,20
2022-09-20T06:28:01.051Z,27
2022-09-20T06:29:01.051Z,22
2022-09-20T06:30:01.051Z,26
2022-09-20T06:31:01.052Z,18
2022-09-20T06:32:01.052Z,17
2022-09-20T06:33:01.052Z,21
2022-09-20T06:34:01.052Z,22
2022-09-20T06:35:01.053Z,21
2022-09-20T06:36:01.025Z,25
2022-09-20T06:37:01.025Z,23
2022-09-20T06:38:01.025Z,27
2022-09-20T06:40:01.026Z,31
2022-09-20T06:41:01.026Z,27
2022-09-20T06:42:01.054Z,33
2022-09-20T06:43:01.055Z,29
2022-09-20T06:44:01.055Z,27
2022-09-20T06:45:01.055Z,31
2022-09-20T06:46:01.056Z,30
2022-09-20T06:47:01.056Z,27
2022-09-20T06:48:01.056Z,30
2022-09-20T06:49:01.056Z,30
2022-09-20T06:50:01.057Z,20
2022-09-20T06:51:01.029Z,24
2022-09-20T06:52:01.029Z,22
2022-09-20T06:53:01.029Z,26
2022-09-20T06:54:01.030Z,27
2022-09-20T06:55:01.030Z,42
2022-09-20T06:56:01.030Z,39
2022-09-20T06:57:01.059Z,31
2022-09-20T06:58:01.059Z,30
2022-09-20T06:59:01.059Z,30
2022-09-20T07:00:01.059Z,28
2022-09-20T07:01:01.060Z,38
2022-09-20T07:02:01.060Z,31
2022-09-20T07:03:01.125Z,31
2022-09-20T07:04:01.061Z,29
2022-09-20T07:05:01.061Z,30
2022-09-20T07:06:01.070Z,30
2022-09-20T07:07:01.033Z,34
2022-09-20T07:08:01.033Z,33
2022-09-20T07:09:01.034Z,34
2022-09-20T07:10:01.034Z,33
2022-09-20T07:11:01.034Z,34
2022-09-20T07:12:01.063Z,29
2022-09-20T07:13:01.063Z,30
2022-09-20T07:15:01.064Z,33
2022-09-20T07:16:01.064Z,29
2022-09-20T07:17:01.064Z,21
2022-09-20T07:18:01.129Z,22
2022-09-20T07:19:01.065Z,28
2022-09-20T07:20:01.065Z,28
2022-09-20T07:21:01.074Z,25
2022-09-20T07:22:01.037Z,25
2022-09-20T07:23:01.037Z,26
2022-09-20T07:24:01.038Z,16
2022-09-20T07:25:01.038Z,23
2022-09-20T07:26:01.038Z,18
2022-09-20T07:27:01.067Z,17
2022-09-20T07:28:01.067Z,22
2022-09-20T07:29:01.067Z,25
2022-09-20T07:30:01.068Z,22
2022-09-20T07:31:01.068Z,17
2022-09-20T07:32:01.068Z,20
2022-09-20T07:33:01.068Z,17
2022-09-20T07:34:01.069Z,20
2022-09-20T07:35:01.069Z,20
2022-09-20T07:36:01.041Z,22
2022-09-20T07:37:01.042Z,26
2022-09-20T07:38:01.042Z,29
2022-09-20T07:39:01.042Z,25
2022-09-20T07:40:01.043Z,32
2022-09-20T07:41:01.043Z,32
2022-09-20T07:42:01.071Z,34
2022-09-20T07:43:01.072Z,27
2022-09-20T07:44:01.072Z,34
2022-09-20T07:45:01.073Z,37
2022-09-20T07:46:01.073Z,48
2022-09-20T07:47:01.073Z,33
2022-09-20T07:48:01.099Z,28
2022-09-20T07:49:01.074Z,34
2022-09-20T07:50:01.074Z,34
2022-09-20T07:51:01.075Z,31
2022-09-20T07:52:01.047Z,30
2022-09-20T07:53:01.047Z,29
2022-09-20T07:54:01.048Z,25
2022-09-20T07:55:01.048Z,34
2022-09-20T07:56:01.048Z,41
2022-09-20T07:57:01.049Z,32
2022-09-20T07:58:01.077Z,38
2022-09-20T07:59:01.077Z,39
2022-09-20T08:00:01.078Z,43
2022-09-20T08:01:01.078Z,40
2022-09-20T08:02:01.079Z,35
2022-09-20T08:03:01.079Z,43
2022-09-20T08:04:01.079Z,50
2022-09-20T08:05:01.080Z,39
2022-09-20T08:06:01.080Z,48
2022-09-20T08:07:01.052Z,51
2022-09-20T08:08:01.053Z,42
2022-09-20T08:09:01.053Z,41
2022-09-20T08:10:01.053Z,43
2022-09-20T08:11:01.054Z,40
2022-09-20T08:12:01.054Z,47
2022-09-20T08:13:01.082Z,40
2022-09-20T08:14:01.083Z,45
2022-09-20T08:15:01.083Z,51
2022-09-20T08:16:01.083Z,39
2022-09-20T08:17:01.084Z,43
2022-09-20T08:18:01.084Z,40
2022-09-20T08:19:01.084Z,48
2022-09-20T08:20:01.085Z,40
2022-09-20T08:21:01.085Z,45
2022-09-20T08:22:01.057Z,40
2022-09-20T08:23:01.058Z,47
2022-09-20T08:24:01.058Z,47
2022-09-20T08:25:01.058Z,44
2022-09-20T08:26:01.059Z,39
2022-09-20T08:27:01.059Z,39
2022-09-20T08:28:01.087Z,40
2022-09-20T08:29:01.088Z,43
2022-09-20T08:30:01.088Z,38
2022-09-20T08:31:01.089Z,42
2022-09-20T08:32:01.089Z,34
2022-09-20T08:33:01.089Z,32
2022-09-20T08:34:01.090Z,33
2022-09-20T08:35:01.090Z,35
2022-09-20T08:36:01.090Z,37
2022-09-20T08:37:01.063Z,35
2022-09-20T08:38:01.063Z,39
2022-09-20T08:39:01.063Z,34
2022-09-20T08:40:01.064Z,28
2022-09-20T08:41:01.064Z,30
2022-09-20T08:42:01.065Z,38
2022-09-20T08:43:01.093Z,49
2022-09-20T08:44:01.093Z,48
2022-09-20T08:45:01.094Z,33
2022-09-20T08:46:01.094Z,40
2022-09-20T08:47:01.094Z,34
2022-09-20T08:48:01.095Z,48
2022-09-20T08:49:01.096Z,41
2022-09-20T08:50:01.096Z,48
2022-09-20T08:51:01.096Z,41
2022-09-20T08:52:01.161Z,44
2022-09-20T08:53:01.069Z,54
2022-09-20T08:54:01.069Z,43
2022-09-20T08:55:01.097Z,34
2022-09-20T08:56:01.070Z,31
2022-09-20T08:57:01.070Z,36
2022-09-20T08:58:01.113Z,34
2022-09-20T08:59:01.099Z,39
2022-09-20T09:00:01.099Z,45
2022-09-20T09:01:01.116Z,42
2022-09-20T09:02:01.100Z,34
2022-09-20T09:03:01.100Z,27
2022-09-20T09:04:01.102Z,35
2022-09-20T09:05:01.101Z,35
2022-09-20T09:06:01.102Z,26
2022-09-20T09:07:01.127Z,26
2022-09-20T09:08:01.074Z,31
2022-09-20T09:09:01.075Z,24
2022-09-20T09:10:01.075Z,20
2022-09-20T09:11:01.076Z,20
2022-09-20T09:12:01.076Z,23
2022-09-20T09:13:01.105Z,27
2022-09-20T09:14:01.105Z,31
2022-09-20T09:15:01.105Z,41
2022-09-20T09:16:01.114Z,46
2022-09-20T09:17:01.107Z,37
2022-09-20T09:18:01.107Z,41
2022-09-20T09:19:01.107Z,41
2022-09-20T09:20:01.108Z,36
2022-09-20T09:21:01.108Z,37
2022-09-20T09:22:01.109Z,38
2022-09-20T09:23:01.081Z,42
2022-09-20T09:24:01.082Z,39
2022-09-20T09:25:01.082Z,37
2022-09-20T09:26:01.083Z,34
2022-09-20T09:27:01.083Z,37
2022-09-20T09:28:01.112Z,37
2022-09-20T09:29:01.112Z,42
2022-09-20T09:30:01.112Z,41
2022-09-20T09:31:01.121Z,49
2022-09-20T09:32:01.113Z,42
2022-09-20T09:33:01.114Z,40
2022-09-20T09:34:01.114Z,44
2022-09-20T09:35:01.115Z,43
2022-09-20T09:36:01.115Z,43
2022-09-20T09:37:01.115Z,40
2022-09-20T09:38:01.088Z,33
2022-09-20T09:39:01.088Z,35
2022-09-20T09:40:01.088Z,35
2022-09-20T09:41:01.089Z,45
2022-09-20T09:42:01.089Z,42
2022-09-20T09:43:01.090Z,31
2022-09-20T09:44:01.118Z,37
2022-09-20T09:45:01.119Z,34
2022-09-20T09:46:01.119Z,33
2022-09-20T09:47:01.119Z,36
2022-09-20T09:48:01.120Z,41
2022-09-20T09:49:01.120Z,34
2022-09-20T09:50:01.120Z,41
2022-09-20T09:51:01.121Z,53
2022-09-20T09:52:01.121Z,47
2022-09-20T09:53:01.093Z,39
2022-09-20T09:54:01.094Z,43
2022-09-20T09:55:01.094Z,45
2022-09-20T09:56:01.095Z,41
2022-09-20T09:57:01.095Z,37
2022-09-20T09:58:01.096Z,35
2022-09-20T09:59:01.124Z,37
2022-09-20T10:00:01.125Z,34
2022-09-20T10:01:01.125Z,37
2022-09-20T10:02:01.126Z,49
2022-09-20T10:03:01.126Z,51
2022-09-20T10:04:01.127Z,39
2022-09-20T10:05:01.127Z,45
2022-09-20T10:06:01.128Z,37
2022-09-20T10:07:01.128Z,41
2022-09-20T10:08:01.153Z,43
2022-09-20T10:09:01.101Z,41
2022-09-20T10:10:01.101Z,42
2022-09-20T10:11:01.102Z,41
2022-09-20T10:12:01.102Z,45
2022-09-20T10:13:01.103Z,55
2022-09-20T10:14:01.131Z,57
2022-09-20T10:15:01.132Z,55
2022-09-20T10:16:01.132Z,46
2022-09-20T10:17:01.141Z,47
2022-09-20T10:18:01.133Z,49
2022-09-20T10:19:01.133Z,55
2022-09-20T10:20:01.134Z,47
2022-09-20T10:21:01.134Z,40
2022-09-20T10:22:01.135Z,37
2022-09-20T10:23:01.135Z,36
2022-09-20T10:24:01.107Z,45
2022-09-20T10:25:01.108Z,43
2022-09-20T10:26:01.108Z,62
2022-09-20T10:27:01.108Z,60
2022-09-20T10:28:01.109Z,55
2022-09-20T10:29:01.137Z,52
2022-09-20T10:30:01.138Z,64
2022-09-20T10:31:01.138Z,62
2022-09-20T10:32:01.202Z,49
2022-09-20T10:33:01.139Z,41
2022-09-20T10:34:01.139Z,41
2022-09-20T10:35:01.140Z,45
2022-09-20T10:36:01.140Z,49
2022-09-20T10:37:01.140Z,44
2022-09-20T10:38:01.141Z,44
2022-09-20T10:39:01.113Z,46
2022-09-20T10:40:01.113Z,48
2022-09-20T10:41:01.114Z,57
2022-09-20T10:42:01.114Z,44
2022-09-20T10:43:01.114Z,53
2022-09-20T10:44:01.115Z,61
2022-09-20T10:45:01.144Z,57
2022-09-20T10:46:01.144Z,55
2022-09-20T10:47:01.144Z,58
2022-09-20T10:48:01.145Z,61
2022-09-20T10:49:01.145Z,56
2022-09-20T10:50:01.145Z,51
2022-09-20T10:51:01.146Z,61
2022-09-20T10:52:01.146Z,73
2022-09-20T10:53:01.146Z,56
2022-09-20T10:54:01.119Z,59
2022-09-20T10:55:01.119Z,58
2022-09-20T10:56:01.119Z,56
2022-09-20T10:57:01.120Z,74
2022-09-20T10:58:01.120Z,79
2022-09-20T10:59:01.121Z,66
2022-09-20T11:00:01.149Z,69
2022-09-20T11:01:01.149Z,57
2022-09-20T11:02:01.150Z,62
2022-09-20T11:03:01.150Z,64
2022-09-20T11:04:01.151Z,55
2022-09-20T11:05:01.151Z,49
2022-09-20T11:06:01.151Z,56
2022-09-20T11:07:01.152Z,71
2022-09-20T11:08:01.152Z,73
2022-09-20T11:09:01.217Z,94
2022-09-20T11:10:01.125Z,107
2022-09-20T11:11:01.125Z,106
2022-09-20T11:12:01.153Z,109
2022-09-20T11:13:01.126Z,98
2022-09-20T11:14:01.126Z,87
2022-09-20T11:15:01.155Z,98
2022-09-20T11:16:01.155Z,107
2022-09-20T11:17:01.155Z,97
2022-09-20T11:18:01.156Z,115
2022-09-20T11:19:01.156Z,118
2022-09-20T11:20:01.157Z,108
2022-09-20T11:21:01.157Z,91
2022-09-20T11:22:01.158Z,85
2022-09-20T11:23:01.158Z,83
2022-09-20T11:24:01.159Z,85
2022-09-20T11:25:01.131Z,81
2022-09-20T11:26:01.131Z,79
2022-09-20T11:27:01.131Z,67
2022-09-20T11:28:01.132Z,70
2022-09-20T11:29:01.132Z,78
2022-09-20T11:30:01.161Z,71
2022-09-20T11:31:01.161Z,70
2022-09-20T11:32:01.162Z,67
2022-09-20T11:33:01.162Z,74
2022-09-20T11:34:01.162Z,60
2022-09-20T11:35:01.163Z,61
2022-09-20T11:36:01.163Z,59
2022-09-20T11:37:01.164Z,61
2022-09-20T11:38:01.164Z,71
2022-09-20T11:39:01.164Z,65
2022-09-20T11:40:01.137Z,74
2022-09-20T11:41:01.137Z,64
2022-09-20T11:42:01.138Z,56
2022-09-20T11:43:01.138Z,64
2022-09-20T11:44:01.138Z,65
2022-09-20T11:45:01.139Z,67
2022-09-20T11:46:01.167Z,67
2022-09-20T11:47:01.168Z,62
2022-09-20T11:48:01.168Z,55
2022-09-20T11:50:01.169Z,71
2022-09-20T11:51:01.169Z,73
2022-09-20T11:52:01.170Z,77
2022-09-20T11:53:01.170Z,57
2022-09-20T11:54:01.171Z,60
2022-09-20T11:55:01.143Z,48
2022-09-20T11:56:01.143Z,51
2022-09-20T11:57:01.144Z,54
2022-09-20T11:58:01.144Z,54
2022-09-20T11:59:01.145Z,49
2022-09-20T12:00:01.145Z,45
2022-09-20T12:01:01.174Z,48
2022-09-20T12:02:01.175Z,49
2022-09-20T12:03:01.175Z,52
2022-09-20T12:04:01.176Z,51
2022-09-20T12:05:01.176Z,57
2022-09-20T12:06:01.177Z,52
2022-09-20T12:07:01.242Z,37
2022-09-20T12:08:01.178Z,46
2022-09-20T12:09:01.178Z,51
2022-09-20T12:10:01.188Z,57
2022-09-20T12:11:01.151Z,54
2022-09-20T12:12:01.152Z,43
2022-09-20T12:13:01.152Z,49
2022-09-20T12:14:01.153Z,46
2022-09-20T12:15:01.153Z,46
2022-09-20T12:16:01.182Z,61
2022-09-20T12:17:01.183Z,59
2022-09-20T12:18:01.183Z,54
2022-09-20T12:19:01.192Z,61
2022-09-20T12:20:01.184Z,58
2022-09-20T12:21:01.185Z,57
2022-09-20T12:22:01.185Z,57
2022-09-20T12:23:01.186Z,55
2022-09-20T12:24:01.186Z,47
2022-09-20T12:25:01.159Z,52
2022-09-20T12:26:01.159Z,55
2022-09-20T12:27:01.159Z,54
2022-09-20T12:28:01.160Z,51
2022-09-20T12:29:01.160Z,54
2022-09-20T12:30:01.161Z,50
2022-09-20T12:31:01.189Z,51
2022-09-20T12:32:01.190Z,52
2022-09-20T12:33:01.190Z,47
2022-09-20T12:34:01.191Z,40
2022-09-20T12:35:01.191Z,38
2022-09-20T12:36:01.191Z,37
2022-09-20T12:37:01.192Z,47
2022-09-20T12:38:01.192Z,35
2022-09-20T12:39:01.193Z,36
2022-09-20T12:40:01.210Z,38
2022-09-20T12:41:01.165Z,42
2022-09-20T12:42:01.166Z,48
2022-09-20T12:43:01.194Z,52
2022-09-20T12:44:01.167Z,45
2022-09-20T12:45:01.167Z,48
2022-09-20T12:46:01.200Z,38
2022-09-20T12:47:01.196Z,40
2022-09-20T12:48:01.196Z,38
2022-09-20T12:49:01.213Z,48
2022-09-20T12:50:01.197Z,40
2022-09-20T12:51:01.198Z,48
2022-09-20T12:52:01.199Z,45
2022-09-20T12:53:01.199Z,45
2022-09-20T12:54:01.199Z,48
2022-09-20T12:55:01.199Z,43
2022-09-20T12:56:01.172Z,42
2022-09-20T12:57:01.172Z,38
2022-09-20T12:58:01.173Z,44
2022-09-20T12:59:01.173Z,45
2022-09-20T13:00:01.173Z,52
2022-09-20T13:01:01.174Z,60
2022-09-20T13:02:01.203Z,55
2022-09-20T13:03:01.203Z,48
2022-09-20T13:04:01.203Z,44
2022-09-20T13:05:01.203Z,48
2022-09-20T13:06:01.204Z,45
2022-09-20T13:07:01.204Z,46
2022-09-20T13:08:01.205Z,50
2022-09-20T13:09:01.205Z,51
2022-09-20T13:10:01.206Z,55
2022-09-20T13:11:01.178Z,57
2022-09-20T13:12:01.178Z,48
2022-09-20T13:13:01.179Z,51
2022-09-20T13:14:01.179Z,49
2022-09-20T13:15:01.180Z,49
2022-09-20T13:16:01.180Z,43
2022-09-20T13:17:01.208Z,46
2022-09-20T13:18:01.209Z,51
2022-09-20T13:19:01.209Z,56
2022-09-20T13:20:01.210Z,54
2022-09-20T13:21:01.210Z,56
2022-09-20T13:22:01.211Z,53
2022-09-20T13:23:01.211Z,48
2022-09-20T13:24:01.211Z,56
2022-09-20T13:25:02.639Z,50
2022-09-20T13:26:01.184Z,42
2022-09-20T13:27:01.184Z,48
2022-09-20T13:28:01.185Z,51
2022-09-20T13:29:01.185Z,53
2022-09-20T13:30:01.186Z,51
2022-09-20T13:31:01.186Z,52
2022-09-20T13:32:01.215Z,54
2022-09-20T13:33:01.215Z,51
2022-09-20T13:34:01.215Z,44
2022-09-20T13:35:01.217Z,62
2022-09-20T13:36:01.217Z,56
2022-09-20T13:37:01.217Z,49
2022-09-20T13:38:01.217Z,58
2022-09-20T13:39:01.218Z,53
2022-09-20T13:40:01.218Z,43
2022-09-20T13:41:01.191Z,51
2022-09-20T13:42:01.191Z,53
2022-09-20T13:43:01.192Z,48
2022-09-20T13:44:01.192Z,54
2022-09-20T13:45:01.192Z,52
2022-09-20T13:46:01.193Z,52
2022-09-20T13:47:01.222Z,54
2022-09-20T13:48:01.222Z,52
2022-09-20T13:49:01.222Z,53
2022-09-20T13:50:01.223Z,57
2022-09-20T13:51:01.223Z,64
2022-09-20T13:52:01.224Z,55
2022-09-20T13:53:01.224Z,61
2022-09-20T13:54:01.224Z,57
2022-09-20T13:55:01.225Z,52
2022-09-20T13:56:01.250Z,51
2022-09-20T13:57:01.197Z,48
2022-09-20T13:58:01.198Z,55
2022-09-20T13:59:01.198Z,43
2022-09-20T14:00:01.199Z,48
2022-09-20T14:01:01.199Z,50
2022-09-20T14:02:01.228Z,56
2022-09-20T14:03:01.228Z,52
2022-09-20T14:04:01.228Z,53
2022-09-20T14:05:01.237Z,55
2022-09-20T14:06:01.229Z,57
2022-09-20T14:07:01.229Z,55
2022-09-20T14:08:01.230Z,46
2022-09-20T14:09:01.230Z,44
2022-09-20T14:11:01.231Z,43
2022-09-20T14:12:01.203Z,47
2022-09-20T14:13:01.204Z,50
2022-09-20T14:14:01.204Z,45
2022-09-20T14:15:01.204Z,52
2022-09-20T14:16:01.205Z,51
2022-09-20T14:17:01.205Z,42
2022-09-20T14:18:01.233Z,45
2022-09-20T14:19:01.234Z,51
2022-09-20T14:20:01.234Z,52
2022-09-20T14:21:01.235Z,51
2022-09-20T14:22:01.235Z,58
2022-09-20T14:23:01.236Z,46
2022-09-20T14:24:01.236Z,43
2022-09-20T14:25:08.624Z,45
2022-09-20T14:26:01.237Z,41
2022-09-20T14:27:01.209Z,42